Brooklyn Center, MN (55430)

11:43 PM CST on February 13, 2016 (GMT -0600)
Dupont Ave | | Change Station
CLOSE
Current Station
Personal Weather Station
Location: Brooklyn Center, MN
Elevation: 850 ft
Nearby Weather Stations

Elev 850 ft 45.06 °N, 93.29 °W | Updated 22 seconds ago

Overcast
Overcast
8.4 °F
Feels Like 1 °F
N
4.0
Wind Variable Wind from SSE
Gusts 13.0 mph

Today
High -- | Low -- °F
--% Chance of Precip.
Yesterday
High -- | Low -- °F
Precip. -- in
Pressure 30.36 in
Visibility 10.0 miles
Clouds Overcast 9000 ft
Windchill 1 °F
Dew Point -5 °F
Humidity 53%
Rainfall 0.00 in
Snow Depth Not available.
7:17 AM 5:37 PM
Waxing Crescent, 38% visible
METAR KMIC 140453Z AUTO 15009KT 10SM OVC090 M13/M21 A3030 RMK AO2 SLP281 T11281211 TSNO
Pressure 30.36 in
Visibility 10.0 miles
Clouds Overcast 9000 ft
Windchill 1 °F
Dew Point -5 °F
Humidity 53%
Rainfall 0.00 in
Snow Depth Not available.
7:17 AM 5:37 PM
Waxing Crescent, 38% visible
METAR KMIC 140453Z AUTO 15009KT 10SM OVC090 M13/M21 A3030 RMK AO2 SLP281 T11281211 TSNO

10-Day Weather Forecast

Almanac

Astronomy

Feb. 13, 2016 Rise Set
Actual Time
Civil Twilight
Nautical Twilight
Astronomical Twilight
Moon
Length of Visible Light
Length of Day
Tomorrow will be .
, % of the Moon is Illuminated

Today's Extremes

State Highs State Lows

Community

WunderPhotos

Upload Photos

1,892,751 photos uploaded!

WunderBlog® & News

Nearby

Air Quality

  Air Quality AQ Index Pollutant
Not available.

Snow Depth

Station Depth Elevation

Earthquake Activity

City Distance Mag. Time & Date
Minimum magnitude displayed is 2.5.

Coastal Water Temperatures

Place Temperature

Stations

Nearby Weather Stations

Station Location Temp. Windchill Dew Point Humidity Wind Precip. Elev Updated Type
                   

Watches & Warnings

There are currently no watches in effect.